Mount Uniacke, Canada
Current Conditions -  °F | °C
As of 5:00 PM on Tuesday 27 Jan 2015 (Local Time) from CYHZ Reporting Station
Blowing Snow Blowing Snow  
Wind Chill: 10°   Ceiling: 1500
Heat Index: 25°   Visibility: 15mi
Dew Point: 19°   Wind: 23mph
Humidity: 80%   Direction: 40°NE
Pressure: 29.5"   Gusts: 35mph
Location:  44.88°N, 63.83°W
Report Text: CYHZ 272100Z 04020G30KT 15SM DRSN OVC015 M04/M07 A2950 RMK SC8 SLP997
Loading
Personal Weather Stations






























Interactive Weather Map New forecast layout! Learn more

10-Day Weather Forecast

Advertisements
Track Severe Weather on mobile